sensor_id;sensor_type;location;lat;lon;timestamp;P1;durP1;ratioP1;P2;durP2;ratioP2
69047;SDS011;56119;50.118;8.642;2022-10-04T00:09:40;19.60;;;11.57;;
69047;SDS011;56119;50.118;8.642;2022-10-04T00:12:13;15.93;;;11.50;;
69047;SDS011;56119;50.118;8.642;2022-10-04T00:14:42;17.13;;;12.20;;
69047;SDS011;56119;50.118;8.642;2022-10-04T00:17:11;18.85;;;10.98;;
69047;SDS011;56119;50.118;8.642;2022-10-04T00:24:35;22.25;;;16.20;;
69047;SDS011;56119;50.118;8.642;2022-10-04T00:27:18;20.45;;;12.48;;
69047;SDS011;56119;50.118;8.642;2022-10-04T00:29:48;23.25;;;14.70;;
69047;SDS011;56119;50.118;8.642;2022-10-04T00:34:50;20.75;;;13.75;;
69047;SDS011;56119;50.118;8.642;2022-10-04T00:37:17;20.30;;;12.98;;
69047;SDS011;56119;50.118;8.642;2022-10-04T00:39:43;19.52;;;12.82;;
69047;SDS011;56119;50.118;8.642;2022-10-04T00:44:57;21.27;;;12.90;;
69047;SDS011;56119;50.118;8.642;2022-10-04T00:50:17;20.02;;;12.35;;
69047;SDS011;56119;50.118;8.642;2022-10-04T00:52:46;17.80;;;11.18;;
69047;SDS011;56119;50.118;8.642;2022-10-04T00:55:21;16.42;;;11.32;;
69047;SDS011;56119;50.118;8.642;2022-10-04T00:57:49;17.77;;;11.52;;
69047;SDS011;56119;50.118;8.642;2022-10-04T01:00:18;17.70;;;12.02;;
69047;SDS011;56119;50.118;8.642;2022-10-04T01:05:15;17.35;;;11.35;;
69047;SDS011;56119;50.118;8.642;2022-10-04T01:07:43;16.15;;;10.05;;
69047;SDS011;56119;50.118;8.642;2022-10-04T01:12:42;18.25;;;9.93;;
69047;SDS011;56119;50.118;8.642;2022-10-04T01:15:15;15.70;;;9.57;;
69047;SDS011;56119;50.118;8.642;2022-10-04T01:18:04;17.58;;;9.95;;
69047;SDS011;56119;50.118;8.642;2022-10-04T01:20:32;16.90;;;10.95;;
69047;SDS011;56119;50.118;8.642;2022-10-04T01:22:59;16.05;;;10.45;;
69047;SDS011;56119;50.118;8.642;2022-10-04T01:25:44;18.77;;;11.35;;
69047;SDS011;56119;50.118;8.642;2022-10-04T01:28:10;19.13;;;11.23;;
69047;SDS011;56119;50.118;8.642;2022-10-04T01:30:36;18.60;;;10.07;;
69047;SDS011;56119;50.118;8.642;2022-10-04T01:33:02;16.23;;;10.25;;
69047;SDS011;56119;50.118;8.642;2022-10-04T01:35:30;15.85;;;10.60;;
69047;SDS011;56119;50.118;8.642;2022-10-04T01:37:59;15.52;;;10.50;;
69047;SDS011;56119;50.118;8.642;2022-10-04T01:40:25;15.13;;;10.10;;
69047;SDS011;56119;50.118;8.642;2022-10-04T01:42:52;16.13;;;11.07;;
69047;SDS011;56119;50.118;8.642;2022-10-04T01:47:51;20.88;;;11.40;;
69047;SDS011;56119;50.118;8.642;2022-10-04T01:50:23;20.33;;;12.35;;
69047;SDS011;56119;50.118;8.642;2022-10-04T01:52:53;21.23;;;12.70;;
69047;SDS011;56119;50.118;8.642;2022-10-04T01:55:23;21.02;;;12.68;;
69047;SDS011;56119;50.118;8.642;2022-10-04T01:57:56;20.45;;;12.68;;
69047;SDS011;56119;50.118;8.642;2022-10-04T02:00:25;19.90;;;13.05;;
69047;SDS011;56119;50.118;8.642;2022-10-04T02:05:18;22.27;;;13.20;;
69047;SDS011;56119;50.118;8.642;2022-10-04T02:07:45;20.80;;;13.13;;
69047;SDS011;56119;50.118;8.642;2022-10-04T02:10:15;24.15;;;13.65;;
69047;SDS011;56119;50.118;8.642;2022-10-04T02:12:43;23.50;;;15.15;;
69047;SDS011;56119;50.118;8.642;2022-10-04T02:15:10;26.90;;;14.40;;
69047;SDS011;56119;50.118;8.642;2022-10-04T02:17:38;22.75;;;14.05;;
69047;SDS011;56119;50.118;8.642;2022-10-04T02:20:25;22.80;;;13.52;;
69047;SDS011;56119;50.118;8.642;2022-10-04T02:22:56;23.33;;;14.75;;
69047;SDS011;56119;50.118;8.642;2022-10-04T02:25:29;22.23;;;12.68;;
69047;SDS011;56119;50.118;8.642;2022-10-04T02:27:55;23.20;;;14.43;;
69047;SDS011;56119;50.118;8.642;2022-10-04T02:30:21;22.02;;;12.95;;
69047;SDS011;56119;50.118;8.642;2022-10-04T02:32:48;21.23;;;13.20;;
69047;SDS011;56119;50.118;8.642;2022-10-04T02:38:09;20.27;;;12.18;;
69047;SDS011;56119;50.118;8.642;2022-10-04T02:40:39;21.88;;;13.25;;
69047;SDS011;56119;50.118;8.642;2022-10-04T02:43:16;21.33;;;12.85;;
69047;SDS011;56119;50.118;8.642;2022-10-04T02:45:54;18.23;;;12.35;;
69047;SDS011;56119;50.118;8.642;2022-10-04T02:50:47;17.33;;;12.13;;
69047;SDS011;56119;50.118;8.642;2022-10-04T02:53:18;18.65;;;11.05;;
69047;SDS011;56119;50.118;8.642;2022-10-04T02:55:46;18.02;;;12.02;;
69047;SDS011;56119;50.118;8.642;2022-10-04T02:58:14;19.65;;;11.90;;
69047;SDS011;56119;50.118;8.642;2022-10-04T03:01:00;15.80;;;11.13;;
69047;SDS011;56119;50.118;8.642;2022-10-04T03:03:27;18.50;;;11.18;;
69047;SDS011;56119;50.118;8.642;2022-10-04T03:08:19;17.90;;;11.65;;
69047;SDS011;56119;50.118;8.642;2022-10-04T03:10:45;14.10;;;10.07;;
69047;SDS011;56119;50.118;8.642;2022-10-04T03:13:11;14.98;;;10.70;;
69047;SDS011;56119;50.118;8.642;2022-10-04T03:15:38;17.90;;;10.70;;
69047;SDS011;56119;50.118;8.642;2022-10-04T03:18:04;15.05;;;10.60;;
69047;SDS011;56119;50.118;8.642;2022-10-04T03:20:30;17.98;;;10.73;;
69047;SDS011;56119;50.118;8.642;2022-10-04T03:23:00;17.88;;;11.25;;
69047;SDS011;56119;50.118;8.642;2022-10-04T03:25:27;16.23;;;10.18;;
69047;SDS011;56119;50.118;8.642;2022-10-04T03:27:54;13.82;;;10.40;;
69047;SDS011;56119;50.118;8.642;2022-10-04T03:30:21;16.10;;;10.43;;
69047;SDS011;56119;50.118;8.642;2022-10-04T03:32:47;15.98;;;10.20;;
69047;SDS011;56119;50.118;8.642;2022-10-04T03:35:32;14.27;;;9.00;;
69047;SDS011;56119;50.118;8.642;2022-10-04T03:37:58;14.05;;;10.05;;
69047;SDS011;56119;50.118;8.642;2022-10-04T03:40:27;13.48;;;9.60;;
69047;SDS011;56119;50.118;8.642;2022-10-04T03:42:54;14.57;;;9.50;;
69047;SDS011;56119;50.118;8.642;2022-10-04T03:45:21;16.05;;;10.00;;
69047;SDS011;56119;50.118;8.642;2022-10-04T03:47:48;15.63;;;9.75;;
69047;SDS011;56119;50.118;8.642;2022-10-04T03:52:52;15.40;;;10.40;;
69047;SDS011;56119;50.118;8.642;2022-10-04T03:55:19;18.05;;;10.75;;
69047;SDS011;56119;50.118;8.642;2022-10-04T03:57:46;18.65;;;11.05;;
69047;SDS011;56119;50.118;8.642;2022-10-04T04:00:16;17.20;;;10.70;;
69047;SDS011;56119;50.118;8.642;2022-10-04T04:02:49;16.60;;;10.15;;
69047;SDS011;56119;50.118;8.642;2022-10-04T04:10:31;18.23;;;11.05;;
69047;SDS011;56119;50.118;8.642;2022-10-04T04:13:02;15.43;;;9.73;;
69047;SDS011;56119;50.118;8.642;2022-10-04T04:15:32;16.40;;;10.77;;
69047;SDS011;56119;50.118;8.642;2022-10-04T04:18:00;18.50;;;11.15;;
69047;SDS011;56119;50.118;8.642;2022-10-04T04:20:28;19.08;;;12.73;;
69047;SDS011;56119;50.118;8.642;2022-10-04T04:22:57;18.95;;;12.25;;
69047;SDS011;56119;50.118;8.642;2022-10-04T04:25:24;18.63;;;11.85;;
69047;SDS011;56119;50.118;8.642;2022-10-04T04:27:51;19.02;;;11.50;;
69047;SDS011;56119;50.118;8.642;2022-10-04T04:30:20;20.65;;;12.13;;
69047;SDS011;56119;50.118;8.642;2022-10-04T04:32:50;20.55;;;12.60;;
69047;SDS011;56119;50.118;8.642;2022-10-04T04:35:51;18.90;;;11.60;;
69047;SDS011;56119;50.118;8.642;2022-10-04T04:38:20;22.27;;;14.30;;
69047;SDS011;56119;50.118;8.642;2022-10-04T04:40:47;24.27;;;13.90;;
69047;SDS011;56119;50.118;8.642;2022-10-04T04:43:15;24.77;;;13.27;;
69047;SDS011;56119;50.118;8.642;2022-10-04T04:45:45;21.70;;;12.88;;
69047;SDS011;56119;50.118;8.642;2022-10-04T04:48:16;24.20;;;13.43;;
69047;SDS011;56119;50.118;8.642;2022-10-04T04:50:47;22.00;;;13.50;;
69047;SDS011;56119;50.118;8.642;2022-10-04T04:53:15;18.50;;;12.43;;
69047;SDS011;56119;50.118;8.642;2022-10-04T04:55:43;22.40;;;12.65;;
69047;SDS011;56119;50.118;8.642;2022-10-04T04:58:17;18.17;;;12.80;;
69047;SDS011;56119;50.118;8.642;2022-10-04T05:00:45;20.52;;;13.40;;
69047;SDS011;56119;50.118;8.642;2022-10-04T05:03:16;20.00;;;12.80;;
69047;SDS011;56119;50.118;8.642;2022-10-04T05:05:44;20.42;;;12.77;;
69047;SDS011;56119;50.118;8.642;2022-10-04T05:11:24;23.92;;;12.88;;
69047;SDS011;56119;50.118;8.642;2022-10-04T05:14:15;20.80;;;12.57;;
69047;SDS011;56119;50.118;8.642;2022-10-04T05:16:21;22.58;;;12.82;;
69047;SDS011;56119;50.118;8.642;2022-10-04T05:18:48;20.08;;;13.35;;
69047;SDS011;56119;50.118;8.642;2022-10-04T05:23:44;20.20;;;12.43;;
69047;SDS011;56119;50.118;8.642;2022-10-04T05:26:11;17.30;;;11.35;;
69047;SDS011;56119;50.118;8.642;2022-10-04T05:28:38;17.13;;;11.38;;
69047;SDS011;56119;50.118;8.642;2022-10-04T05:31:09;17.60;;;11.63;;
69047;SDS011;56119;50.118;8.642;2022-10-04T05:34:01;18.00;;;11.55;;
69047;SDS011;56119;50.118;8.642;2022-10-04T05:36:38;17.00;;;11.40;;
69047;SDS011;56119;50.118;8.642;2022-10-04T05:44:00;13.88;;;9.52;;
69047;SDS011;56119;50.118;8.642;2022-10-04T05:46:32;12.60;;;8.65;;
69047;SDS011;56119;50.118;8.642;2022-10-04T05:49:05;13.10;;;9.32;;
69047;SDS011;56119;50.118;8.642;2022-10-04T05:51:34;12.52;;;8.77;;
69047;SDS011;56119;50.118;8.642;2022-10-04T05:54:02;12.43;;;8.68;;
69047;SDS011;56119;50.118;8.642;2022-10-04T06:04:42;13.55;;;8.73;;
69047;SDS011;56119;50.118;8.642;2022-10-04T06:07:24;11.65;;;8.20;;
69047;SDS011;56119;50.118;8.642;2022-10-04T06:13:00;12.23;;;8.25;;
69047;SDS011;56119;50.118;8.642;2022-10-04T06:15:39;12.82;;;8.90;;
69047;SDS011;56119;50.118;8.642;2022-10-04T06:23:15;12.73;;;8.38;;
69047;SDS011;56119;50.118;8.642;2022-10-04T06:30:39;13.25;;;9.80;;
69047;SDS011;56119;50.118;8.642;2022-10-04T06:41:25;13.32;;;10.20;;
69047;SDS011;56119;50.118;8.642;2022-10-04T06:44:15;13.02;;;11.02;;
69047;SDS011;56119;50.118;8.642;2022-10-04T06:46:47;17.05;;;12.38;;
69047;SDS011;56119;50.118;8.642;2022-10-04T07:02:05;12.70;;;9.93;;
69047;SDS011;56119;50.118;8.642;2022-10-04T07:09:50;13.18;;;9.45;;
69047;SDS011;56119;50.118;8.642;2022-10-04T07:12:17;12.13;;;9.25;;
69047;SDS011;56119;50.118;8.642;2022-10-04T07:14:45;14.50;;;9.82;;
69047;SDS011;56119;50.118;8.642;2022-10-04T07:17:16;13.98;;;9.70;;
69047;SDS011;56119;50.118;8.642;2022-10-04T07:19:51;11.30;;;9.13;;
69047;SDS011;56119;50.118;8.642;2022-10-04T07:25:15;11.27;;;9.20;;
69047;SDS011;56119;50.118;8.642;2022-10-04T07:30:16;14.52;;;9.52;;
69047;SDS011;56119;50.118;8.642;2022-10-04T07:32:45;10.75;;;8.45;;
69047;SDS011;56119;50.118;8.642;2022-10-04T07:35:14;10.95;;;8.63;;
69047;SDS011;56119;50.118;8.642;2022-10-04T07:42:59;10.57;;;9.07;;
69047;SDS011;56119;50.118;8.642;2022-10-04T07:45:30;10.95;;;7.90;;
69047;SDS011;56119;50.118;8.642;2022-10-04T07:48:15;11.82;;;8.85;;
69047;SDS011;56119;50.118;8.642;2022-10-04T07:53:44;12.10;;;8.63;;
69047;SDS011;56119;50.118;8.642;2022-10-04T07:56:29;10.10;;;8.57;;
69047;SDS011;56119;50.118;8.642;2022-10-04T08:04:10;10.70;;;8.90;;
69047;SDS011;56119;50.118;8.642;2022-10-04T08:06:57;11.02;;;8.32;;
69047;SDS011;56119;50.118;8.642;2022-10-04T08:09:27;11.07;;;8.27;;
69047;SDS011;56119;50.118;8.642;2022-10-04T08:12:06;12.38;;;9.32;;
69047;SDS011;56119;50.118;8.642;2022-10-04T08:19:36;12.50;;;8.73;;
69047;SDS011;56119;50.118;8.642;2022-10-04T08:22:11;11.93;;;8.65;;
69047;SDS011;56119;50.118;8.642;2022-10-04T08:27:24;13.18;;;9.13;;
69047;SDS011;56119;50.118;8.642;2022-10-04T08:30:11;12.90;;;9.10;;
69047;SDS011;56119;50.118;8.642;2022-10-04T08:35:27;11.75;;;8.90;;
69047;SDS011;56119;50.118;8.642;2022-10-04T09:09:45;14.00;;;10.00;;
69047;SDS011;56119;50.118;8.642;2022-10-04T09:22:54;9.23;;;7.05;;
69047;SDS011;56119;50.118;8.642;2022-10-04T09:30:42;9.00;;;6.50;;
69047;SDS011;56119;50.118;8.642;2022-10-04T09:33:20;11.93;;;6.57;;
69047;SDS011;56119;50.118;8.642;2022-10-04T09:54:09;9.60;;;6.32;;
69047;SDS011;56119;50.118;8.642;2022-10-04T09:56:54;10.07;;;6.97;;
69047;SDS011;56119;50.118;8.642;2022-10-04T10:04:38;8.82;;;7.10;;
69047;SDS011;56119;50.118;8.642;2022-10-04T10:09:45;6.97;;;5.45;;
69047;SDS011;56119;50.118;8.642;2022-10-04T10:20:28;9.27;;;6.75;;
69047;SDS011;56119;50.118;8.642;2022-10-04T10:23:05;9.85;;;7.47;;
69047;SDS011;56119;50.118;8.642;2022-10-04T10:38:54;8.98;;;5.45;;
69047;SDS011;56119;50.118;8.642;2022-10-04T10:41:38;10.40;;;5.38;;
69047;SDS011;56119;50.118;8.642;2022-10-04T11:04:34;7.97;;;4.75;;
69047;SDS011;56119;50.118;8.642;2022-10-04T11:20:35;4.57;;;4.07;;
69047;SDS011;56119;50.118;8.642;2022-10-04T11:39:25;5.65;;;3.80;;
69047;SDS011;56119;50.118;8.642;2022-10-04T11:47:07;5.80;;;3.10;;
69047;SDS011;56119;50.118;8.642;2022-10-04T11:49:48;4.65;;;2.83;;
69047;SDS011;56119;50.118;8.642;2022-10-04T11:54:56;5.38;;;2.95;;
69047;SDS011;56119;50.118;8.642;2022-10-04T11:57:32;4.07;;;2.60;;
69047;SDS011;56119;50.118;8.642;2022-10-04T12:00:12;4.70;;;3.13;;
69047;SDS011;56119;50.118;8.642;2022-10-04T12:08:17;4.63;;;2.78;;
69047;SDS011;56119;50.118;8.642;2022-10-04T12:11:00;5.22;;;3.08;;
69047;SDS011;56119;50.118;8.642;2022-10-04T12:19:13;5.13;;;2.88;;
69047;SDS011;56119;50.118;8.642;2022-10-04T12:27:26;5.80;;;3.20;;
69047;SDS011;56119;50.118;8.642;2022-10-04T12:42:32;5.38;;;3.35;;
69047;SDS011;56119;50.118;8.642;2022-10-04T12:45:11;4.50;;;2.80;;
69047;SDS011;56119;50.118;8.642;2022-10-04T12:47:49;8.45;;;2.85;;
69047;SDS011;56119;50.118;8.642;2022-10-04T12:53:08;5.90;;;2.80;;
69047;SDS011;56119;50.118;8.642;2022-10-04T13:00:45;5.40;;;2.70;;
69047;SDS011;56119;50.118;8.642;2022-10-04T13:03:24;5.57;;;2.65;;
69047;SDS011;56119;50.118;8.642;2022-10-04T13:05:57;4.88;;;2.95;;
69047;SDS011;56119;50.118;8.642;2022-10-04T13:19:20;5.47;;;3.30;;
69047;SDS011;56119;50.118;8.642;2022-10-04T13:22:00;5.13;;;2.72;;
69047;SDS011;56119;50.118;8.642;2022-10-04T13:24:33;6.88;;;3.30;;
69047;SDS011;56119;50.118;8.642;2022-10-04T13:27:20;6.57;;;2.55;;
69047;SDS011;56119;50.118;8.642;2022-10-04T13:29:53;6.00;;;2.83;;
69047;SDS011;56119;50.118;8.642;2022-10-04T13:32:25;7.75;;;2.80;;
69047;SDS011;56119;50.118;8.642;2022-10-04T13:35:10;5.82;;;2.72;;
69047;SDS011;56119;50.118;8.642;2022-10-04T13:37:58;6.47;;;2.83;;
69047;SDS011;56119;50.118;8.642;2022-10-04T13:40:31;7.38;;;3.22;;
69047;SDS011;56119;50.118;8.642;2022-10-04T13:43:10;3.72;;;2.20;;
69047;SDS011;56119;50.118;8.642;2022-10-04T13:45:42;5.32;;;2.35;;
69047;SDS011;56119;50.118;8.642;2022-10-04T13:59:03;4.70;;;2.67;;
69047;SDS011;56119;50.118;8.642;2022-10-04T14:07:10;3.47;;;2.38;;
69047;SDS011;56119;50.118;8.642;2022-10-04T14:26:15;7.45;;;2.70;;
69047;SDS011;56119;50.118;8.642;2022-10-04T14:29:05;3.83;;;2.30;;
69047;SDS011;56119;50.118;8.642;2022-10-04T14:48:22;4.10;;;2.28;;
69047;SDS011;56119;50.118;8.642;2022-10-04T14:50:25;3.42;;;1.98;;
69047;SDS011;56119;50.118;8.642;2022-10-04T14:53:06;6.05;;;2.75;;
69047;SDS011;56119;50.118;8.642;2022-10-04T15:00:57;4.80;;;2.17;;
69047;SDS011;56119;50.118;8.642;2022-10-04T15:03:37;4.95;;;2.20;;
69047;SDS011;56119;50.118;8.642;2022-10-04T15:09:11;4.13;;;2.30;;
69047;SDS011;56119;50.118;8.642;2022-10-04T15:11:50;4.53;;;2.30;;
69047;SDS011;56119;50.118;8.642;2022-10-04T15:14:22;4.05;;;2.50;;
69047;SDS011;56119;50.118;8.642;2022-10-04T15:16:57;6.25;;;2.33;;
69047;SDS011;56119;50.118;8.642;2022-10-04T15:19:28;6.05;;;2.60;;
69047;SDS011;56119;50.118;8.642;2022-10-04T15:45:22;3.70;;;2.30;;
69047;SDS011;56119;50.118;8.642;2022-10-04T15:50:36;5.35;;;2.90;;
69047;SDS011;56119;50.118;8.642;2022-10-04T16:03:49;6.78;;;3.10;;
69047;SDS011;56119;50.118;8.642;2022-10-04T16:06:26;5.10;;;2.53;;
69047;SDS011;56119;50.118;8.642;2022-10-04T16:19:14;8.07;;;3.55;;
69047;SDS011;56119;50.118;8.642;2022-10-04T16:21:53;7.13;;;3.97;;
69047;SDS011;56119;50.118;8.642;2022-10-04T16:24:39;6.55;;;3.40;;
69047;SDS011;56119;50.118;8.642;2022-10-04T16:27:22;5.30;;;3.28;;
69047;SDS011;56119;50.118;8.642;2022-10-04T16:30:05;5.85;;;2.88;;
69047;SDS011;56119;50.118;8.642;2022-10-04T16:32:45;5.18;;;3.40;;
69047;SDS011;56119;50.118;8.642;2022-10-04T16:46:02;7.07;;;4.32;;
69047;SDS011;56119;50.118;8.642;2022-10-04T16:48:32;8.05;;;4.40;;
69047;SDS011;56119;50.118;8.642;2022-10-04T16:56:09;8.13;;;4.40;;
69047;SDS011;56119;50.118;8.642;2022-10-04T16:58:50;6.50;;;4.80;;
69047;SDS011;56119;50.118;8.642;2022-10-04T17:06:15;11.18;;;6.57;;
69047;SDS011;56119;50.118;8.642;2022-10-04T17:09:23;8.95;;;5.10;;
69047;SDS011;56119;50.118;8.642;2022-10-04T17:11:43;7.40;;;5.00;;
69047;SDS011;56119;50.118;8.642;2022-10-04T17:19:16;9.90;;;5.90;;
69047;SDS011;56119;50.118;8.642;2022-10-04T17:22:04;8.98;;;5.47;;
69047;SDS011;56119;50.118;8.642;2022-10-04T17:32:32;8.73;;;5.60;;
69047;SDS011;56119;50.118;8.642;2022-10-04T17:37:52;11.27;;;7.55;;
69047;SDS011;56119;50.118;8.642;2022-10-04T17:40:26;10.85;;;6.75;;
69047;SDS011;56119;50.118;8.642;2022-10-04T17:43:02;12.43;;;6.95;;
69047;SDS011;56119;50.118;8.642;2022-10-04T17:45:45;11.27;;;6.25;;
69047;SDS011;56119;50.118;8.642;2022-10-04T17:48:17;11.32;;;6.70;;
69047;SDS011;56119;50.118;8.642;2022-10-04T17:53:54;12.23;;;6.68;;
69047;SDS011;56119;50.118;8.642;2022-10-04T17:56:50;9.40;;;6.70;;
69047;SDS011;56119;50.118;8.642;2022-10-04T17:59:24;12.20;;;7.47;;
69047;SDS011;56119;50.118;8.642;2022-10-04T18:01:52;10.32;;;7.20;;
69047;SDS011;56119;50.118;8.642;2022-10-04T18:04:24;13.05;;;7.28;;
69047;SDS011;56119;50.118;8.642;2022-10-04T18:06:57;10.10;;;6.43;;
69047;SDS011;56119;50.118;8.642;2022-10-04T18:09:27;10.35;;;7.10;;
69047;SDS011;56119;50.118;8.642;2022-10-04T18:11:58;12.20;;;7.05;;
69047;SDS011;56119;50.118;8.642;2022-10-04T18:16:58;12.02;;;7.22;;
69047;SDS011;56119;50.118;8.642;2022-10-04T18:21:53;13.98;;;8.80;;
69047;SDS011;56119;50.118;8.642;2022-10-04T18:24:27;12.45;;;8.02;;
69047;SDS011;56119;50.118;8.642;2022-10-04T18:27:00;12.80;;;8.82;;
69047;SDS011;56119;50.118;8.642;2022-10-04T18:29:42;12.93;;;9.15;;
69047;SDS011;56119;50.118;8.642;2022-10-04T18:32:15;16.50;;;9.30;;
69047;SDS011;56119;50.118;8.642;2022-10-04T18:34:56;13.68;;;8.48;;
69047;SDS011;56119;50.118;8.642;2022-10-04T18:37:31;13.45;;;8.90;;
69047;SDS011;56119;50.118;8.642;2022-10-04T18:40:17;13.05;;;9.02;;
69047;SDS011;56119;50.118;8.642;2022-10-04T18:42:54;12.93;;;8.20;;
69047;SDS011;56119;50.118;8.642;2022-10-04T18:45:30;14.00;;;9.20;;
69047;SDS011;56119;50.118;8.642;2022-10-04T18:47:58;11.70;;;8.73;;
69047;SDS011;56119;50.118;8.642;2022-10-04T18:50:30;14.93;;;9.50;;
69047;SDS011;56119;50.118;8.642;2022-10-04T18:55:57;15.10;;;9.88;;
69047;SDS011;56119;50.118;8.642;2022-10-04T19:01:33;15.73;;;9.70;;
69047;SDS011;56119;50.118;8.642;2022-10-04T19:07:14;15.68;;;8.60;;
69047;SDS011;56119;50.118;8.642;2022-10-04T19:09:45;15.82;;;9.68;;
69047;SDS011;56119;50.118;8.642;2022-10-04T19:12:16;14.02;;;10.02;;
69047;SDS011;56119;50.118;8.642;2022-10-04T19:15:02;16.55;;;9.32;;
69047;SDS011;56119;50.118;8.642;2022-10-04T19:17:48;14.52;;;9.43;;
69047;SDS011;56119;50.118;8.642;2022-10-04T19:20:27;13.95;;;9.82;;
69047;SDS011;56119;50.118;8.642;2022-10-04T19:28:17;15.82;;;9.65;;
69047;SDS011;56119;50.118;8.642;2022-10-04T19:33:26;15.38;;;10.65;;
69047;SDS011;56119;50.118;8.642;2022-10-04T19:41:11;13.68;;;9.63;;
69047;SDS011;56119;50.118;8.642;2022-10-04T19:46:10;15.18;;;10.57;;
69047;SDS011;56119;50.118;8.642;2022-10-04T19:48:47;20.05;;;12.00;;
69047;SDS011;56119;50.118;8.642;2022-10-04T19:53:43;20.63;;;11.48;;
69047;SDS011;56119;50.118;8.642;2022-10-04T19:56:16;15.70;;;11.77;;
69047;SDS011;56119;50.118;8.642;2022-10-04T19:58:43;18.92;;;13.23;;
69047;SDS011;56119;50.118;8.642;2022-10-04T20:01:12;16.05;;;11.68;;
69047;SDS011;56119;50.118;8.642;2022-10-04T20:03:40;17.90;;;11.48;;
69047;SDS011;56119;50.118;8.642;2022-10-04T20:06:06;17.58;;;12.30;;
69047;SDS011;56119;50.118;8.642;2022-10-04T20:08:52;18.67;;;11.68;;
69047;SDS011;56119;50.118;8.642;2022-10-04T20:11:22;19.17;;;12.45;;
69047;SDS011;56119;50.118;8.642;2022-10-04T20:21:46;17.63;;;11.15;;
69047;SDS011;56119;50.118;8.642;2022-10-04T20:24:55;16.38;;;11.52;;
69047;SDS011;56119;50.118;8.642;2022-10-04T20:27:05;16.98;;;11.23;;
69047;SDS011;56119;50.118;8.642;2022-10-04T20:30:18;18.95;;;12.18;;
69047;SDS011;56119;50.118;8.642;2022-10-04T20:35:02;15.70;;;10.98;;
69047;SDS011;56119;50.118;8.642;2022-10-04T20:43:22;18.10;;;11.57;;
69047;SDS011;56119;50.118;8.642;2022-10-04T20:45:33;19.02;;;12.02;;
69047;SDS011;56119;50.118;8.642;2022-10-04T20:48:10;17.42;;;12.05;;
69047;SDS011;56119;50.118;8.642;2022-10-04T20:50:37;18.80;;;11.52;;
69047;SDS011;56119;50.118;8.642;2022-10-04T20:53:26;17.90;;;13.10;;
69047;SDS011;56119;50.118;8.642;2022-10-04T20:56:09;17.67;;;11.82;;
69047;SDS011;56119;50.118;8.642;2022-10-04T20:58:36;16.20;;;11.18;;
69047;SDS011;56119;50.118;8.642;2022-10-04T21:01:05;18.80;;;12.35;;
69047;SDS011;56119;50.118;8.642;2022-10-04T21:07:05;19.75;;;13.23;;
69047;SDS011;56119;50.118;8.642;2022-10-04T21:09:32;23.38;;;12.48;;
69047;SDS011;56119;50.118;8.642;2022-10-04T21:11:59;20.77;;;12.95;;
69047;SDS011;56119;50.118;8.642;2022-10-04T21:14:32;18.48;;;12.30;;
69047;SDS011;56119;50.118;8.642;2022-10-04T21:16:58;16.40;;;11.63;;
69047;SDS011;56119;50.118;8.642;2022-10-04T21:27:11;27.92;;;16.95;;
69047;SDS011;56119;50.118;8.642;2022-10-04T21:29:37;19.50;;;13.30;;
69047;SDS011;56119;50.118;8.642;2022-10-04T21:32:04;20.95;;;12.85;;
69047;SDS011;56119;50.118;8.642;2022-10-04T21:34:30;20.60;;;13.50;;
69047;SDS011;56119;50.118;8.642;2022-10-04T21:36:56;32.42;;;27.73;;
69047;SDS011;56119;50.118;8.642;2022-10-04T21:39:25;28.33;;;24.63;;
69047;SDS011;56119;50.118;8.642;2022-10-04T21:41:51;38.63;;;31.83;;
69047;SDS011;56119;50.118;8.642;2022-10-04T21:44:17;87.90;;;58.08;;
69047;SDS011;56119;50.118;8.642;2022-10-04T21:46:42;173.90;;;122.10;;
69047;SDS011;56119;50.118;8.642;2022-10-04T21:49:08;117.68;;;72.50;;
69047;SDS011;56119;50.118;8.642;2022-10-04T21:51:34;204.90;;;127.72;;
69047;SDS011;56119;50.118;8.642;2022-10-04T21:54:02;96.50;;;61.47;;
69047;SDS011;56119;50.118;8.642;2022-10-04T21:56:27;197.93;;;134.80;;
69047;SDS011;56119;50.118;8.642;2022-10-04T21:58:53;240.82;;;161.82;;
69047;SDS011;56119;50.118;8.642;2022-10-04T22:01:19;293.38;;;210.10;;
69047;SDS011;56119;50.118;8.642;2022-10-04T22:03:45;211.45;;;153.80;;
69047;SDS011;56119;50.118;8.642;2022-10-04T22:06:11;159.25;;;111.32;;
69047;SDS011;56119;50.118;8.642;2022-10-04T22:08:38;189.63;;;131.82;;
69047;SDS011;56119;50.118;8.642;2022-10-04T22:11:04;190.40;;;138.57;;
69047;SDS011;56119;50.118;8.642;2022-10-04T22:13:30;173.45;;;131.43;;
69047;SDS011;56119;50.118;8.642;2022-10-04T22:15:56;110.55;;;97.20;;
69047;SDS011;56119;50.118;8.642;2022-10-04T22:18:22;30.92;;;23.27;;
69047;SDS011;56119;50.118;8.642;2022-10-04T22:20:48;19.88;;;15.00;;
69047;SDS011;56119;50.118;8.642;2022-10-04T22:23:15;73.05;;;56.58;;
69047;SDS011;56119;50.118;8.642;2022-10-04T22:25:42;152.43;;;120.28;;
69047;SDS011;56119;50.118;8.642;2022-10-04T22:28:22;401.70;;;238.02;;
69047;SDS011;56119;50.118;8.642;2022-10-04T22:30:48;651.60;;;385.52;;
69047;SDS011;56119;50.118;8.642;2022-10-04T22:33:32;806.60;;;457.38;;
69047;SDS011;56119;50.118;8.642;2022-10-04T22:36:04;594.50;;;352.58;;
69047;SDS011;56119;50.118;8.642;2022-10-04T22:38:35;621.97;;;386.08;;
69047;SDS011;56119;50.118;8.642;2022-10-04T22:41:11;545.45;;;354.27;;
69047;SDS011;56119;50.118;8.642;2022-10-04T22:43:37;325.17;;;217.18;;
69047;SDS011;56119;50.118;8.642;2022-10-04T22:46:04;306.23;;;192.70;;
69047;SDS011;56119;50.118;8.642;2022-10-04T22:48:30;414.45;;;274.98;;
69047;SDS011;56119;50.118;8.642;2022-10-04T22:50:56;513.10;;;350.10;;
69047;SDS011;56119;50.118;8.642;2022-10-04T22:53:22;350.25;;;247.05;;
69047;SDS011;56119;50.118;8.642;2022-10-04T22:55:49;440.83;;;339.67;;
69047;SDS011;56119;50.118;8.642;2022-10-04T22:58:15;250.02;;;192.10;;
69047;SDS011;56119;50.118;8.642;2022-10-04T23:00:42;174.63;;;136.57;;
69047;SDS011;56119;50.118;8.642;2022-10-04T23:03:27;204.95;;;176.02;;
69047;SDS011;56119;50.118;8.642;2022-10-04T23:05:55;133.20;;;109.00;;
69047;SDS011;56119;50.118;8.642;2022-10-04T23:08:21;122.40;;;108.88;;
69047;SDS011;56119;50.118;8.642;2022-10-04T23:10:47;104.80;;;90.38;;
69047;SDS011;56119;50.118;8.642;2022-10-04T23:13:13;48.60;;;42.97;;
69047;SDS011;56119;50.118;8.642;2022-10-04T23:15:39;46.00;;;39.75;;
69047;SDS011;56119;50.118;8.642;2022-10-04T23:18:12;43.20;;;38.63;;
69047;SDS011;56119;50.118;8.642;2022-10-04T23:20:43;25.17;;;21.10;;
69047;SDS011;56119;50.118;8.642;2022-10-04T23:23:12;19.98;;;16.40;;
69047;SDS011;56119;50.118;8.642;2022-10-04T23:25:45;19.67;;;15.10;;
69047;SDS011;56119;50.118;8.642;2022-10-04T23:28:13;18.45;;;14.60;;
69047;SDS011;56119;50.118;8.642;2022-10-04T23:30:39;16.98;;;12.18;;
69047;SDS011;56119;50.118;8.642;2022-10-04T23:33:11;16.92;;;11.73;;
69047;SDS011;56119;50.118;8.642;2022-10-04T23:35:38;19.02;;;12.10;;
69047;SDS011;56119;50.118;8.642;2022-10-04T23:38:04;18.83;;;11.60;;
69047;SDS011;56119;50.118;8.642;2022-10-04T23:40:31;13.45;;;11.05;;
69047;SDS011;56119;50.118;8.642;2022-10-04T23:42:57;16.33;;;13.38;;
69047;SDS011;56119;50.118;8.642;2022-10-04T23:45:25;16.60;;;13.25;;
69047;SDS011;56119;50.118;8.642;2022-10-04T23:47:56;14.63;;;11.80;;
69047;SDS011;56119;50.118;8.642;2022-10-04T23:50:32;17.80;;;12.40;;
69047;SDS011;56119;50.118;8.642;2022-10-04T23:52:59;18.70;;;13.73;;
69047;SDS011;56119;50.118;8.642;2022-10-04T23:55:34;15.50;;;11.70;;